Time;durP1;ratioP1;P1;durP2;ratioP2;P2;SDS_P1;SDS_P2;PMS_P1;PMS_P2;Temp;Humidity;BMP_temperature;BMP_pressure;BME280_temperature;BME280_humidity;BME280_pressure;Samples;Min_cycle;Max_cycle;Signal;HPM_P1;HPM_P2
2022/05/29 00:00:04;;;;;;;;;;;13.60;99.90;;;;;;5075306;28;19908;-75
2022/05/29 00:02:31;;;;;;;;;;;13.70;99.90;;;;;;5076087;28;20272;-75
2022/05/29 00:04:57;;;;;;;;;;;13.80;99.90;;;;;;5075151;28;19915;-76
2022/05/29 00:07:24;;;;;;;;;;;13.90;99.90;;;;;;5075098;28;19908;-75
2022/05/29 00:09:52;;;;;;;;;;;13.90;99.90;;;;;;5074764;28;19912;-75
2022/05/29 00:12:20;;;;;;;;;;;13.90;99.90;;;;;;5075105;28;19909;-75
2022/05/29 00:14:47;;;;;;;;;;;14.00;99.90;;;;;;5075010;28;19909;-75
2022/05/29 00:17:15;;;;;;;;;;;14.00;99.90;;;;;;5074344;28;19965;-75
2022/05/29 00:19:42;;;;;;;;;;;14.10;99.90;;;;;;5074562;28;19920;-74
2022/05/29 00:22:10;;;;;;;;;;;14.20;99.90;;;;;;5075145;28;20378;-74
2022/05/29 00:24:37;;;;;;;;;;;14.20;99.90;;;;;;5074628;28;19955;-74
2022/05/29 00:27:04;;;;;;;;;;;14.20;99.90;;;;;;5074859;28;19913;-75
2022/05/29 00:29:30;;;;;;;;;;;14.30;99.90;;;;;;5074490;28;19908;-75
2022/05/29 00:31:57;;;;;;;;;;;14.30;99.90;;;;;;5074197;28;19915;-75
2022/05/29 00:34:24;;;;;;;;;;;14.30;99.90;;;;;;5074555;28;19924;-74
2022/05/29 00:36:50;;;;;;;;;;;14.40;99.90;;;;;;5074511;28;19915;-75
2022/05/29 00:39:17;;;;;;;;;;;14.50;99.90;;;;;;5074539;28;20355;-75
2022/05/29 00:41:44;;;;;;;;;;;14.50;99.90;;;;;;5074307;28;19912;-75
2022/05/29 00:44:16;;;;;;;;;;;14.60;99.90;;;;;;5074406;28;19908;-75
2022/05/29 00:46:44;;;;;;;;;;;14.60;99.90;;;;;;5073804;28;19909;-75
2022/05/29 00:49:12;;;;;;;;;;;14.60;99.90;;;;;;5074462;28;19908;-75
2022/05/29 00:51:41;;;;;;;;;;;14.70;99.90;;;;;;5075699;28;19917;-76
2022/05/29 00:54:08;;;;;;;;;;;14.70;99.90;;;;;;5073754;28;20336;-75
2022/05/29 00:56:36;;;;;;;;;;;14.80;99.90;;;;;;5074440;28;19920;-75
2022/05/29 00:59:03;;;;;;;;;;;14.90;99.90;;;;;;5074335;28;19909;-76
2022/05/29 01:01:31;;;;;;;;;;;15.30;99.90;;;;;;5073849;28;20309;-75
2022/05/29 01:03:57;;;;;;;;;;;15.40;99.90;;;;;;5074327;28;19909;-74
2022/05/29 01:06:24;;;;;;;;;;;15.60;99.90;;;;;;5073944;28;19913;-76
2022/05/29 01:08:51;;;;;;;;;;;15.80;99.90;;;;;;5073909;28;19915;-76
2022/05/29 01:11:24;;;;;;;;;;;16.00;99.90;;;;;;5073948;28;20359;-76
2022/05/29 01:14:02;;;;;;;;;;;16.10;99.90;;;;;;5073750;28;20057;-76
2022/05/29 01:16:36;;;;;;;;;;;16.30;99.90;;;;;;5074094;28;19909;-76
2022/05/29 01:19:05;;;;;;;;;;;16.20;99.90;;;;;;5073875;28;19916;-76
2022/05/29 01:21:59;;;;;;;;;;;16.20;99.70;;;;;;5073743;28;19909;-75
2022/05/29 01:24:44;;;;;;;;;;;16.10;99.90;;;;;;5073614;28;19951;-75
2022/05/29 01:27:13;;;;;;;;;;;15.80;99.90;;;;;;5073788;28;19915;-75
2022/05/29 01:29:44;;;;;;;;;;;15.80;99.90;;;;;;5073528;28;19916;-76
2022/05/29 01:32:15;;;;;;;;;;;15.80;99.90;;;;;;5073568;28;19908;-77
2022/05/29 01:34:47;;;;;;;;;;;15.80;99.90;;;;;;5073572;28;19916;-76
2022/05/29 01:37:29;;;;;;;;;;;15.80;99.90;;;;;;5072255;28;19918;-76
2022/05/29 01:40:02;;;;;;;;;;;15.70;99.90;;;;;;5073958;28;20356;-75
2022/05/29 01:42:42;;;;;;;;;;;15.70;99.90;;;;;;5073224;28;19922;-77
2022/05/29 01:45:18;;;;;;;;;;;15.60;99.90;;;;;;5072887;28;19915;-75
2022/05/29 01:47:51;;;;;;;;;;;15.60;99.90;;;;;;5073252;28;19912;-76
2022/05/29 01:50:20;;;;;;;;;;;15.60;99.80;;;;;;5073245;28;20005;-75
2022/05/29 01:52:53;;;;;;;;;;;15.60;99.60;;;;;;5072780;28;19921;-74
2022/05/29 01:55:26;;;;;;;;;;;15.50;99.90;;;;;;5073194;28;19916;-76
2022/05/29 01:57:55;;;;;;;;;;;15.50;99.90;;;;;;5073085;28;20314;-76
2022/05/29 02:00:23;;;;;;;;;;;15.50;99.90;;;;;;5072568;28;19916;-76
2022/05/29 02:02:52;;;;;;;;;;;15.50;99.90;;;;;;5071871;28;20271;-75
2022/05/29 02:05:21;;;;;;;;;;;15.50;99.90;;;;;;5072889;28;19963;-75
2022/05/29 02:07:50;;;;;;;;;;;15.50;99.90;;;;;;5072950;28;19912;-76
2022/05/29 02:10:35;;;;;;;;;;;15.40;99.90;;;;;;5073064;28;19962;-76
2022/05/29 02:13:13;;;;;;;;;;;15.50;99.90;;;;;;5073115;28;20336;-77
2022/05/29 02:15:50;;;;;;;;;;;15.50;99.90;;;;;;5072690;28;20267;-76
2022/05/29 02:18:24;;;;;;;;;;;15.60;99.90;;;;;;5073009;28;20007;-77
2022/05/29 02:20:52;;;;;;;;;;;15.60;99.90;;;;;;5073002;28;20275;-76
2022/05/29 02:23:27;;;;;;;;;;;15.60;99.90;;;;;;5073119;28;19908;-76
2022/05/29 02:25:54;;;;;;;;;;;15.60;99.50;;;;;;5073053;28;20263;-76
2022/05/29 02:28:32;;;;;;;;;;;15.60;99.70;;;;;;5073188;28;19962;-75
2022/05/29 02:31:13;;;;;;;;;;;15.60;99.90;;;;;;5072268;28;19970;-77
2022/05/29 02:33:46;;;;;;;;;;;15.60;99.90;;;;;;5072790;28;19962;-76
2022/05/29 02:36:23;;;;;;;;;;;15.60;99.90;;;;;;5073006;28;19948;-76
2022/05/29 02:38:55;;;;;;;;;;;15.70;99.90;;;;;;5073025;28;19908;-76
2022/05/29 02:41:29;;;;;;;;;;;15.80;99.90;;;;;;5072725;28;20281;-76
2022/05/29 02:44:25;;;;;;;;;;;15.80;99.70;;;;;;5072651;28;19909;-76
2022/05/29 02:46:56;;;;;;;;;;;15.80;99.20;;;;;;5067849;28;19908;-77
2022/05/29 02:49:25;;;;;;;;;;;15.90;99.60;;;;;;5072714;28;19962;-77
2022/05/29 02:52:01;;;;;;;;;;;15.80;99.90;;;;;;5071940;28;20370;-77
2022/05/29 02:54:30;;;;;;;;;;;15.80;99.90;;;;;;5072721;28;19917;-76
2022/05/29 02:56:58;;;;;;;;;;;15.80;99.90;;;;;;5072701;28;19909;-76
2022/05/29 02:59:27;;;;;;;;;;;15.80;99.80;;;;;;5072093;28;19912;-76
2022/05/29 03:02:16;;;;;;;;;;;15.80;99.30;;;;;;5072024;28;19991;-76
2022/05/29 03:05:03;;;;;;;;;;;15.80;99.50;;;;;;5062186;28;19908;-76
2022/05/29 03:07:39;;;;;;;;;;;15.80;99.80;;;;;;5072391;28;19909;-76
2022/05/29 03:10:10;;;;;;;;;;;15.80;99.60;;;;;;5072496;28;19959;-76
2022/05/29 03:12:44;;;;;;;;;;;15.80;99.60;;;;;;5072582;28;19909;-77
2022/05/29 03:15:25;;;;;;;;;;;15.80;99.90;;;;;;5072728;28;19912;-76
2022/05/29 03:17:55;;;;;;;;;;;15.80;99.20;;;;;;5075180;28;19915;-76
2022/05/29 03:20:28;;;;;;;;;;;15.90;99.70;;;;;;5076172;28;19909;-76
2022/05/29 03:22:54;;;;;;;;;;;15.80;99.90;;;;;;5076037;28;19912;-76
2022/05/29 03:25:38;;;;;;;;;;;15.80;99.90;;;;;;5076115;28;19969;-76
2022/05/29 03:28:07;;;;;;;;;;;15.90;99.90;;;;;;5076164;28;19958;-76
2022/05/29 03:30:36;;;;;;;;;;;16.00;99.80;;;;;;5075988;28;19951;-76
2022/05/29 03:33:06;;;;;;;;;;;16.00;99.50;;;;;;5075794;28;19919;-76
2022/05/29 03:35:41;;;;;;;;;;;15.90;99.30;;;;;;5075558;28;19963;-76
2022/05/29 03:38:08;;;;;;;;;;;15.90;98.90;;;;;;5075702;28;19908;-76
2022/05/29 03:40:35;;;;;;;;;;;15.90;99.10;;;;;;5075842;28;19999;-76
2022/05/29 03:43:01;;;;;;;;;;;15.90;98.70;;;;;;5075728;28;19948;-76
2022/05/29 03:45:28;;;;;;;;;;;15.90;99.10;;;;;;5075780;28;19909;-77
2022/05/29 03:47:55;;;;;;;;;;;15.90;99.90;;;;;;5075397;28;19912;-76
2022/05/29 03:50:23;;;;;;;;;;;15.90;99.90;;;;;;5085435;28;19913;-76
2022/05/29 03:52:50;;;;;;;;;;;16.00;98.60;;;;;;5074423;28;20007;-76
2022/05/29 03:55:21;;;;;;;;;;;15.90;98.60;;;;;;5074681;28;19909;-76
2022/05/29 03:57:48;;;;;;;;;;;15.90;98.80;;;;;;5074251;28;19908;-75
2022/05/29 04:00:15;;;;;;;;;;;15.90;98.90;;;;;;5074633;28;20765;-76
2022/05/29 04:02:42;;;;;;;;;;;15.90;98.60;;;;;;5074580;28;19908;-76
2022/05/29 04:05:09;;;;;;;;;;;15.90;98.40;;;;;;5074525;28;19915;-76
2022/05/29 04:13:06;;;;;;;;;;;15.90;98.40;;;;;;5074484;28;20377;-75
2022/05/29 04:15:32;;;;;;;;;;;16.00;97.60;;;;;;5074075;28;19909;-75
2022/05/29 04:17:59;;;;;;;;;;;16.00;97.50;;;;;;5088390;28;19907;-77
2022/05/29 04:20:26;;;;;;;;;;;16.00;97.10;;;;;;5115684;28;19908;-77
2022/05/29 04:22:52;;;;;;;;;;;15.90;97.70;;;;;;5115528;28;20285;-76
2022/05/29 04:25:19;;;;;;;;;;;15.90;98.10;;;;;;5115563;28;19994;-76
2022/05/29 04:27:46;;;;;;;;;;;15.90;97.30;;;;;;5115258;28;19954;-76
2022/05/29 04:30:12;;;;;;;;;;;15.90;98.00;;;;;;5115610;28;19953;-75
2022/05/29 04:35:23;;;;;;;;;;;15.90;97.50;;;;;;5115297;28;19960;-76
2022/05/29 04:37:50;;;;;;;;;;;15.90;98.20;;;;;;5115003;28;19916;-76
2022/05/29 04:40:17;;;;;;;;;;;15.90;98.60;;;;;;5115318;28;19947;-77
2022/05/29 04:42:44;;;;;;;;;;;15.80;98.80;;;;;;5114047;28;19911;-77
2022/05/29 04:45:11;;;;;;;;;;;15.90;99.30;;;;;;5115269;28;19915;-77
2022/05/29 04:47:37;;;;;;;;;;;15.80;98.50;;;;;;5115221;28;19908;-77
2022/05/29 04:50:04;;;;;;;;;;;15.90;98.70;;;;;;5115085;28;20400;-77
2022/05/29 04:52:31;;;;;;;;;;;15.90;98.10;;;;;;5113478;28;20282;-77
2022/05/29 04:54:57;;;;;;;;;;;15.90;97.70;;;;;;5114970;28;19912;-76
2022/05/29 04:57:24;;;;;;;;;;;15.90;97.80;;;;;;5115027;28;19912;-76
2022/05/29 04:59:51;;;;;;;;;;;15.80;98.40;;;;;;5114816;28;20263;-77
2022/05/29 05:02:17;;;;;;;;;;;15.80;98.70;;;;;;5114786;28;19953;-76
2022/05/29 05:04:44;;;;;;;;;;;15.80;98.50;;;;;;5114936;28;19912;-76
2022/05/29 05:07:11;;;;;;;;;;;15.90;97.30;;;;;;5114483;28;19915;-77
2022/05/29 05:09:38;;;;;;;;;;;15.80;97.20;;;;;;5114495;28;19907;-76
2022/05/29 05:12:04;;;;;;;;;;;15.80;97.10;;;;;;5114956;28;19919;-77
2022/05/29 05:14:34;;;;;;;;;;;15.70;97.90;;;;;;5114571;28;19916;-76
2022/05/29 05:17:00;;;;;;;;;;;15.80;97.70;;;;;;5114484;28;19931;-77
2022/05/29 05:19:27;;;;;;;;;;;15.80;97.80;;;;;;5114453;28;19943;-76
2022/05/29 05:21:54;;;;;;;;;;;15.70;97.60;;;;;;5113988;28;19912;-75
2022/05/29 05:24:21;;;;;;;;;;;15.70;98.30;;;;;;5114183;28;19915;-75
2022/05/29 05:26:48;;;;;;;;;;;15.70;97.20;;;;;;5114286;28;20280;-74
2022/05/29 05:29:15;;;;;;;;;;;15.70;97.30;;;;;;5114130;28;20301;-74
2022/05/29 05:31:41;;;;;;;;;;;15.60;97.90;;;;;;5113970;28;20381;-75
2022/05/29 05:34:08;;;;;;;;;;;15.60;97.70;;;;;;5114034;28;19973;-74
2022/05/29 05:36:34;;;;;;;;;;;15.60;98.80;;;;;;5114102;28;19916;-75
2022/05/29 05:39:07;;;;;;;;;;;15.60;97.90;;;;;;5113561;28;19908;-74
2022/05/29 05:41:33;;;;;;;;;;;15.60;98.40;;;;;;5113847;28;19914;-75
2022/05/29 05:44:00;;;;;;;;;;;15.60;98.70;;;;;;5114081;28;19998;-74
2022/05/29 05:46:27;;;;;;;;;;;15.50;97.80;;;;;;5114001;28;19908;-75
2022/05/29 05:48:54;;;;;;;;;;;15.50;98.00;;;;;;5113933;28;19907;-75
2022/05/29 05:51:21;;;;;;;;;;;15.40;98.40;;;;;;5113454;28;20303;-74
2022/05/29 05:53:47;;;;;;;;;;;15.40;98.00;;;;;;5113470;28;19920;-74
2022/05/29 05:56:15;;;;;;;;;;;15.40;98.30;;;;;;5113600;28;19908;-75
2022/05/29 05:58:45;;;;;;;;;;;15.40;98.70;;;;;;5113807;28;20359;-75
2022/05/29 06:01:13;;;;;;;;;;;15.30;99.10;;;;;;5113682;28;19998;-74
2022/05/29 06:03:40;;;;;;;;;;;15.30;98.80;;;;;;5095844;28;19908;-75
2022/05/29 06:06:07;;;;;;;;;;;15.30;98.50;;;;;;5072981;28;19913;-74
2022/05/29 06:08:33;;;;;;;;;;;15.20;98.70;;;;;;5073001;28;19908;-75
2022/05/29 06:11:00;;;;;;;;;;;15.30;98.80;;;;;;5073138;28;19915;-75
2022/05/29 06:13:27;;;;;;;;;;;15.20;99.30;;;;;;5073126;28;19927;-75
2022/05/29 06:15:53;;;;;;;;;;;15.20;99.10;;;;;;5072149;28;19909;-75
2022/05/29 06:18:20;;;;;;;;;;;15.10;99.60;;;;;;5073083;28;20335;-75
2022/05/29 06:20:47;;;;;;;;;;;15.10;99.30;;;;;;5072814;28;19915;-75
2022/05/29 06:23:13;;;;;;;;;;;15.00;99.50;;;;;;5073026;28;20248;-75
2022/05/29 06:25:41;;;;;;;;;;;15.00;99.30;;;;;;5072767;28;20351;-75
2022/05/29 06:28:08;;;;;;;;;;;15.00;99.60;;;;;;5073100;28;19999;-75
2022/05/29 06:30:35;;;;;;;;;;;14.90;98.90;;;;;;5072279;28;19912;-75
2022/05/29 06:33:03;;;;;;;;;;;14.90;99.40;;;;;;5072715;28;19924;-75
2022/05/29 06:35:29;;;;;;;;;;;14.80;99.00;;;;;;5072759;28;19920;-75
2022/05/29 06:37:56;;;;;;;;;;;14.80;98.60;;;;;;5072773;28;19908;-75
2022/05/29 06:40:23;;;;;;;;;;;14.70;98.80;;;;;;5073009;28;19915;-75
2022/05/29 06:42:50;;;;;;;;;;;14.70;99.10;;;;;;5072649;28;20318;-74
2022/05/29 06:45:16;;;;;;;;;;;14.70;99.40;;;;;;5072288;28;20932;-74
2022/05/29 06:47:43;;;;;;;;;;;14.60;99.10;;;;;;5072625;28;20275;-74
2022/05/29 06:50:10;;;;;;;;;;;14.60;99.90;;;;;;5072758;28;19915;-74
2022/05/29 06:52:37;;;;;;;;;;;14.60;98.80;;;;;;5074928;28;20286;-74
2022/05/29 06:55:05;;;;;;;;;;;14.50;98.90;;;;;;5076529;28;19913;-75
2022/05/29 06:57:37;;;;;;;;;;;14.50;99.60;;;;;;5076053;28;19908;-75
2022/05/29 07:08:41;;;;;;;;;;;14.20;99.70;;;;;;5076280;28;19943;-74
2022/05/29 07:11:19;;;;;;;;;;;14.20;99.80;;;;;;5075855;28;19909;-75
2022/05/29 07:13:46;;;;;;;;;;;14.20;99.90;;;;;;5075734;28;19922;-74
2022/05/29 07:16:14;;;;;;;;;;;14.20;99.90;;;;;;5076049;28;19908;-75
2022/05/29 07:18:41;;;;;;;;;;;14.20;99.70;;;;;;5075867;28;19998;-74
2022/05/29 07:21:08;;;;;;;;;;;14.10;99.90;;;;;;5075811;28;19912;-74
2022/05/29 07:23:35;;;;;;;;;;;14.10;99.90;;;;;;5075688;28;20002;-74
2022/05/29 07:26:03;;;;;;;;;;;14.00;99.60;;;;;;5075976;28;20012;-74
2022/05/29 07:28:30;;;;;;;;;;;14.00;99.90;;;;;;5075853;28;19909;-74
2022/05/29 07:30:56;;;;;;;;;;;14.00;99.90;;;;;;5075896;28;20011;-75
2022/05/29 07:33:25;;;;;;;;;;;14.00;99.90;;;;;;5075630;28;19912;-75
2022/05/29 07:35:52;;;;;;;;;;;13.90;99.90;;;;;;5075449;28;19908;-74
2022/05/29 07:38:19;;;;;;;;;;;13.90;99.90;;;;;;5075731;28;19909;-74
2022/05/29 07:40:46;;;;;;;;;;;13.90;99.90;;;;;;5075620;28;19916;-75
2022/05/29 07:43:26;;;;;;;;;;;13.90;99.90;;;;;;5075614;28;19908;-75
2022/05/29 07:45:57;;;;;;;;;;;13.80;99.90;;;;;;5075335;28;19966;-75
2022/05/29 07:48:25;;;;;;;;;;;13.80;99.90;;;;;;5073847;28;19916;-75
2022/05/29 07:50:52;;;;;;;;;;;13.80;99.90;;;;;;5073259;28;20044;-75
2022/05/29 07:53:19;;;;;;;;;;;13.80;99.90;;;;;;5072936;28;20295;-74
2022/05/29 07:55:45;;;;;;;;;;;13.70;99.90;;;;;;5072915;28;19986;-74
2022/05/29 07:58:13;;;;;;;;;;;13.70;99.90;;;;;;5073185;28;19984;-74
2022/05/29 08:00:40;;;;;;;;;;;13.70;99.90;;;;;;5073208;28;19954;-75
2022/05/29 08:03:07;;;;;;;;;;;13.70;99.90;;;;;;5072229;28;19949;-75
2022/05/29 08:05:36;;;;;;;;;;;13.70;99.90;;;;;;5072214;28;19951;-75
2022/05/29 08:08:08;;;;;;;;;;;13.60;99.90;;;;;;5073114;28;20378;-75
2022/05/29 08:10:36;;;;;;;;;;;13.60;99.90;;;;;;5073005;28;19956;-75
2022/05/29 08:13:03;;;;;;;;;;;13.60;99.90;;;;;;5072626;28;19920;-75
2022/05/29 08:15:30;;;;;;;;;;;13.60;99.90;;;;;;5072886;28;20403;-75
2022/05/29 08:17:56;;;;;;;;;;;13.50;99.90;;;;;;5072877;28;19912;-74
2022/05/29 08:20:23;;;;;;;;;;;13.50;99.90;;;;;;5072720;28;19913;-74
2022/05/29 08:22:50;;;;;;;;;;;13.50;99.90;;;;;;5072729;28;19908;-75
2022/05/29 08:30:54;;;;;;;;;;;13.50;99.90;;;;;;5072428;28;20001;-75
2022/05/29 08:33:24;;;;;;;;;;;13.40;99.90;;;;;;5072309;28;19925;-75
2022/05/29 08:36:00;;;;;;;;;;;13.40;99.90;;;;;;5071965;28;20011;-74
2022/05/29 08:38:28;;;;;;;;;;;13.40;99.90;;;;;;5072484;28;19952;-74
2022/05/29 08:40:56;;;;;;;;;;;13.40;99.90;;;;;;5072396;28;19912;-74
2022/05/29 08:43:23;;;;;;;;;;;13.30;99.90;;;;;;5071856;28;19963;-74
2022/05/29 08:45:50;;;;;;;;;;;13.30;99.90;;;;;;5072036;28;20406;-74
2022/05/29 08:48:19;;;;;;;;;;;13.30;99.90;;;;;;5070855;28;19920;-74
2022/05/29 08:50:51;;;;;;;;;;;13.30;99.90;;;;;;5072060;28;20279;-74
2022/05/29 08:53:34;;;;;;;;;;;13.20;99.90;;;;;;5070093;28;20384;-74
2022/05/29 08:56:09;;;;;;;;;;;13.20;99.90;;;;;;5071769;28;19973;-75
2022/05/29 08:58:38;;;;;;;;;;;13.20;99.90;;;;;;5072098;28;19916;-75
2022/05/29 09:01:12;;;;;;;;;;;13.20;99.90;;;;;;5071989;28;20012;-74
2022/05/29 09:03:57;;;;;;;;;;;13.10;99.90;;;;;;5071852;28;19999;-75
2022/05/29 09:06:33;;;;;;;;;;;13.10;99.90;;;;;;5073936;28;19955;-75
2022/05/29 09:09:05;;;;;;;;;;;13.10;99.90;;;;;;5074179;28;19915;-75
2022/05/29 09:11:38;;;;;;;;;;;13.10;99.90;;;;;;5073869;28;19909;-74
2022/05/29 09:14:08;;;;;;;;;;;13.00;99.90;;;;;;5073039;28;20015;-74
2022/05/29 09:16:42;;;;;;;;;;;13.00;99.90;;;;;;5073704;28;19919;-75
2022/05/29 09:19:16;;;;;;;;;;;13.00;99.90;;;;;;5073734;28;19944;-75
2022/05/29 09:21:46;;;;;;;;;;;13.00;99.90;;;;;;5073381;28;20271;-75
2022/05/29 09:24:25;;;;;;;;;;;13.00;99.90;;;;;;5073755;28;19916;-74
2022/05/29 09:26:51;;;;;;;;;;;12.90;99.90;;;;;;5073640;28;20013;-75
2022/05/29 09:29:18;;;;;;;;;;;12.90;99.90;;;;;;5073571;28;20427;-74
2022/05/29 09:31:44;;;;;;;;;;;12.80;99.90;;;;;;5073363;28;19951;-74
2022/05/29 09:34:11;;;;;;;;;;;12.80;99.90;;;;;;5073339;28;19955;-75
2022/05/29 09:37:14;;;;;;;;;;;12.80;99.90;;;;;;5072804;28;19973;-75
2022/05/29 09:39:45;;;;;;;;;;;12.80;99.90;;;;;;5050929;28;19944;-74
2022/05/29 09:42:19;;;;;;;;;;;12.80;99.90;;;;;;5069873;28;19909;-74
2022/05/29 09:45:18;;;;;;;;;;;12.80;99.90;;;;;;5072736;28;19915;-74
2022/05/29 09:50:51;;;;;;;;;;;12.90;99.90;;;;;;5073374;28;20370;-74
2022/05/29 09:53:34;;;;;;;;;;;12.90;99.90;;;;;;5073209;28;19925;-74
2022/05/29 09:56:02;;;;;;;;;;;12.90;99.90;;;;;;5073229;28;19916;-74
2022/05/29 09:58:44;;;;;;;;;;;12.80;99.90;;;;;;5073195;28;19915;-74
2022/05/29 10:01:10;;;;;;;;;;;12.80;99.90;;;;;;5072914;28;19908;-74
2022/05/29 10:03:41;;;;;;;;;;;12.80;99.90;;;;;;5072952;28;19915;-74
2022/05/29 10:06:14;;;;;;;;;;;12.80;99.90;;;;;;5072923;28;19952;-74
2022/05/29 10:08:41;;;;;;;;;;;12.80;99.90;;;;;;5073181;28;20409;-74
2022/05/29 10:11:17;;;;;;;;;;;12.80;99.90;;;;;;5073228;28;19909;-74
2022/05/29 10:13:44;;;;;;;;;;;12.80;99.90;;;;;;5072804;28;19991;-75
2022/05/29 10:16:12;;;;;;;;;;;12.80;99.90;;;;;;5071197;28;19956;-74
2022/05/29 10:18:40;;;;;;;;;;;12.70;99.90;;;;;;5073042;28;19912;-74
2022/05/29 10:21:08;;;;;;;;;;;12.70;99.90;;;;;;5072850;28;19955;-74
2022/05/29 10:23:36;;;;;;;;;;;12.60;99.90;;;;;;5072702;28;19912;-74
2022/05/29 10:26:10;;;;;;;;;;;12.60;99.90;;;;;;5074693;28;19908;-74
2022/05/29 10:28:37;;;;;;;;;;;12.60;99.90;;;;;;5077012;28;19950;-74
2022/05/29 10:31:08;;;;;;;;;;;12.50;99.90;;;;;;5076034;28;19916;-74
2022/05/29 10:33:36;;;;;;;;;;;12.50;99.90;;;;;;5076785;28;19927;-74
2022/05/29 10:36:19;;;;;;;;;;;12.50;99.90;;;;;;5076746;28;19909;-74
2022/05/29 10:38:46;;;;;;;;;;;12.50;99.90;;;;;;5076965;28;19912;-74
2022/05/29 10:41:13;;;;;;;;;;;12.50;99.90;;;;;;5076859;28;20363;-74
2022/05/29 10:43:42;;;;;;;;;;;12.40;99.90;;;;;;5076533;28;20043;-74
2022/05/29 10:46:11;;;;;;;;;;;12.40;99.90;;;;;;5076808;28;19908;-74
2022/05/29 10:48:56;;;;;;;;;;;12.50;99.90;;;;;;5076649;28;19986;-74
2022/05/29 10:51:51;;;;;;;;;;;12.60;99.90;;;;;;5076398;28;19995;-74
2022/05/29 10:54:17;;;;;;;;;;;12.50;99.90;;;;;;5076566;28;20032;-75
2022/05/29 10:56:48;;;;;;;;;;;12.50;99.90;;;;;;5076517;28;20356;-74
2022/05/29 10:59:24;;;;;;;;;;;12.40;99.90;;;;;;5076444;28;20066;-74
2022/05/29 11:04:59;;;;;;;;;;;12.40;99.90;;;;;;5076280;28;19915;-74
2022/05/29 11:07:38;;;;;;;;;;;12.40;99.90;;;;;;5076253;28;19915;-74
2022/05/29 11:10:12;;;;;;;;;;;12.40;99.90;;;;;;5076148;28;19912;-74
2022/05/29 11:12:59;;;;;;;;;;;12.40;99.90;;;;;;5076100;28;19908;-74
2022/05/29 11:15:35;;;;;;;;;;;12.50;99.90;;;;;;5076050;28;19909;-74
2022/05/29 11:18:24;;;;;;;;;;;12.50;99.90;;;;;;5075993;28;19915;-74
2022/05/29 11:20:57;;;;;;;;;;;12.40;99.90;;;;;;5076000;28;19916;-74
2022/05/29 11:23:42;;;;;;;;;;;12.30;99.90;;;;;;5076033;28;19908;-74
2022/05/29 11:26:12;;;;;;;;;;;12.30;99.90;;;;;;5075958;28;19908;-74
2022/05/29 11:28:55;;;;;;;;;;;12.40;99.90;;;;;;5075946;28;19916;-74
2022/05/29 11:31:24;;;;;;;;;;;12.30;99.90;;;;;;5075988;28;19908;-74
2022/05/29 11:34:04;;;;;;;;;;;12.20;99.90;;;;;;5075511;28;20264;-74
2022/05/29 11:36:49;;;;;;;;;;;12.20;99.90;;;;;;5075589;28;19908;-74
2022/05/29 11:39:34;;;;;;;;;;;12.10;99.90;;;;;;5075387;28;19931;-74
2022/05/29 11:42:05;;;;;;;;;;;12.10;99.90;;;;;;5075702;28;20232;-74
2022/05/29 11:44:34;;;;;;;;;;;12.00;99.90;;;;;;5075646;28;19909;-74
2022/05/29 11:53:26;;;;;;;;;;;12.00;99.90;;;;;;5074405;28;19926;-74
2022/05/29 11:55:55;;;;;;;;;;;12.00;99.90;;;;;;5075347;28;19909;-74
2022/05/29 11:58:26;;;;;;;;;;;12.00;99.90;;;;;;5075396;28;19908;-74
2022/05/29 12:00:57;;;;;;;;;;;12.10;99.90;;;;;;5075288;28;19909;-74
2022/05/29 12:03:50;;;;;;;;;;;12.00;99.90;;;;;;5075234;28;19915;-74
2022/05/29 12:06:26;;;;;;;;;;;12.00;99.90;;;;;;5074961;28;19970;-75
2022/05/29 12:09:01;;;;;;;;;;;12.10;99.90;;;;;;5075239;28;19948;-75
2022/05/29 12:11:36;;;;;;;;;;;12.00;99.90;;;;;;5075198;28;19908;-75
2022/05/29 12:14:11;;;;;;;;;;;12.00;99.90;;;;;;5074720;28;19970;-75
2022/05/29 12:16:40;;;;;;;;;;;11.90;99.90;;;;;;5075152;28;19909;-74
2022/05/29 12:19:09;;;;;;;;;;;11.90;99.90;;;;;;5074858;28;20355;-74
2022/05/29 12:21:36;;;;;;;;;;;11.90;99.90;;;;;;5074775;28;19961;-74
2022/05/29 12:24:03;;;;;;;;;;;12.00;99.90;;;;;;5074830;28;19938;-75
2022/05/29 12:26:35;;;;;;;;;;;12.00;99.90;;;;;;5074923;28;19909;-74
2022/05/29 12:29:12;;;;;;;;;;;12.00;99.90;;;;;;5075079;28;19909;-75
2022/05/29 12:31:47;;;;;;;;;;;12.00;99.90;;;;;;5073294;28;20467;-74
2022/05/29 12:34:21;;;;;;;;;;;12.00;99.90;;;;;;5074492;28;20275;-75
2022/05/29 12:37:06;;;;;;;;;;;11.90;99.90;;;;;;5074683;28;20015;-74
2022/05/29 12:39:32;;;;;;;;;;;11.90;99.90;;;;;;5074466;28;19962;-75
2022/05/29 12:42:17;;;;;;;;;;;11.90;99.90;;;;;;5074687;28;20000;-76
2022/05/29 12:44:52;;;;;;;;;;;11.90;99.90;;;;;;5074657;28;20000;-75
2022/05/29 12:47:19;;;;;;;;;;;11.90;99.90;;;;;;5074685;28;19908;-75
2022/05/29 12:49:45;;;;;;;;;;;11.90;99.90;;;;;;5074185;28;20333;-75
2022/05/29 12:52:18;;;;;;;;;;;11.90;99.90;;;;;;5074250;28;19979;-76
2022/05/29 12:54:56;;;;;;;;;;;11.90;99.90;;;;;;5074266;28;20379;-75
2022/05/29 12:57:41;;;;;;;;;;;11.90;99.90;;;;;;5074381;28;19915;-76
2022/05/29 13:00:11;;;;;;;;;;;11.80;99.90;;;;;;5074294;28;19944;-76
2022/05/29 13:02:55;;;;;;;;;;;11.90;99.90;;;;;;5074320;28;19913;-76
2022/05/29 13:05:54;;;;;;;;;;;11.90;99.90;;;;;;5074151;28;19955;-75
2022/05/29 13:08:46;;;;;;;;;;;12.00;99.90;;;;;;5072726;28;19909;-75
2022/05/29 13:11:17;;;;;;;;;;;11.90;99.90;;;;;;5074235;28;19908;-76
2022/05/29 13:13:46;;;;;;;;;;;11.90;99.90;;;;;;5073847;28;20007;-75
2022/05/29 13:16:31;;;;;;;;;;;11.90;99.90;;;;;;5073944;28;19954;-76
2022/05/29 13:22:08;;;;;;;;;;;12.00;99.90;;;;;;5073766;28;20340;-76
2022/05/29 13:24:38;;;;;;;;;;;11.90;99.90;;;;;;5073551;28;19912;-75
2022/05/29 13:27:27;;;;;;;;;;;11.90;99.90;;;;;;5073790;28;19944;-76
2022/05/29 13:29:56;;;;;;;;;;;11.90;99.90;;;;;;5073210;28;19912;-75
2022/05/29 13:32:24;;;;;;;;;;;11.90;99.90;;;;;;5073844;28;19909;-75
2022/05/29 13:34:51;;;;;;;;;;;11.80;99.90;;;;;;5073513;28;19924;-75
2022/05/29 13:37:21;;;;;;;;;;;11.90;99.90;;;;;;5073772;28;19909;-76
2022/05/29 13:39:53;;;;;;;;;;;11.80;99.90;;;;;;5073533;28;19931;-76
2022/05/29 13:42:25;;;;;;;;;;;11.80;99.90;;;;;;5073618;28;19916;-75
2022/05/29 13:44:51;;;;;;;;;;;11.80;99.90;;;;;;5073598;28;19908;-76
2022/05/29 13:47:22;;;;;;;;;;;11.70;99.90;;;;;;5073675;28;19908;-75
2022/05/29 13:49:57;;;;;;;;;;;11.70;99.90;;;;;;5073248;28;19909;-75
2022/05/29 13:52:29;;;;;;;;;;;11.70;99.90;;;;;;5073458;28;19920;-76
2022/05/29 13:55:03;;;;;;;;;;;11.60;99.90;;;;;;5073457;28;20019;-77
2022/05/29 14:06:24;;;;;;;;;;;11.50;99.90;;;;;;5073495;28;19915;-77
2022/05/29 14:08:53;;;;;;;;;;;11.60;99.90;;;;;;5073276;28;20023;-77
2022/05/29 14:11:20;;;;;;;;;;;11.70;99.90;;;;;;5073263;28;20282;-77
2022/05/29 14:13:52;;;;;;;;;;;11.70;99.90;;;;;;5073045;28;19959;-77
2022/05/29 14:16:32;;;;;;;;;;;11.70;99.90;;;;;;5073269;28;19916;-77
2022/05/29 14:19:28;;;;;;;;;;;11.60;99.90;;;;;;5073144;28;20003;-77
2022/05/29 14:21:57;;;;;;;;;;;11.60;99.90;;;;;;5070851;28;20279;-77
2022/05/29 14:24:27;;;;;;;;;;;11.50;99.90;;;;;;5073366;28;19908;-77
2022/05/29 14:26:59;;;;;;;;;;;11.40;99.90;;;;;;5073463;28;20003;-76
2022/05/29 14:29:35;;;;;;;;;;;11.30;99.90;;;;;;5073279;28;19944;-77
2022/05/29 14:32:13;;;;;;;;;;;11.30;99.90;;;;;;5074871;28;19912;-76
2022/05/29 14:34:45;;;;;;;;;;;11.20;99.90;;;;;;5073332;28;19916;-76
2022/05/29 14:37:23;;;;;;;;;;;11.20;99.90;;;;;;5073178;28;19909;-77
2022/05/29 14:39:59;;;;;;;;;;;11.10;99.90;;;;;;5072973;28;19909;-76
2022/05/29 14:42:26;;;;;;;;;;;11.00;99.90;;;;;;5073163;28;19915;-77
2022/05/29 14:45:10;;;;;;;;;;;11.00;99.90;;;;;;5072873;28;19915;-77
2022/05/29 14:47:40;;;;;;;;;;;10.90;99.90;;;;;;5072858;28;19912;-77
2022/05/29 14:50:24;;;;;;;;;;;11.00;99.90;;;;;;5072921;28;20392;-76
2022/05/29 14:52:57;;;;;;;;;;;10.90;99.90;;;;;;5072760;28;19926;-77
2022/05/29 14:55:27;;;;;;;;;;;11.00;99.90;;;;;;5073164;28;19951;-77
2022/05/29 14:57:59;;;;;;;;;;;11.00;99.90;;;;;;5072737;28;19952;-77
2022/05/29 15:00:27;;;;;;;;;;;11.00;99.90;;;;;;5072856;28;20287;-77
2022/05/29 15:02:55;;;;;;;;;;;11.00;99.90;;;;;;5072725;28;20386;-77
2022/05/29 15:05:23;;;;;;;;;;;11.00;99.90;;;;;;5072757;28;19916;-77
2022/05/29 15:10:38;;;;;;;;;;;11.00;99.90;;;;;;5072924;28;19919;-77
2022/05/29 15:13:20;;;;;;;;;;;11.00;99.90;;;;;;5074365;28;19959;-76
2022/05/29 15:15:48;;;;;;;;;;;11.00;99.90;;;;;;5076102;28;19916;-77
2022/05/29 15:18:15;;;;;;;;;;;11.10;99.90;;;;;;5076115;28;19958;-77
2022/05/29 15:26:20;;;;;;;;;;;11.20;99.90;;;;;;5076221;28;20409;-77
2022/05/29 15:28:49;;;;;;;;;;;11.40;99.90;;;;;;5076149;28;20012;-76
2022/05/29 15:31:20;;;;;;;;;;;11.30;99.90;;;;;;5076031;28;19974;-77
2022/05/29 15:34:05;;;;;;;;;;;11.40;99.90;;;;;;5075667;28;19923;-76